San Francisco, California
Current Conditions -  °F | °C
As of 7:56 PM on Wednesday 22 Oct 2014 (Local Time) from KSFO Reporting Station
Broken Clouds Broken Clouds  
Wind Chill: 67°   Ceiling: 15000
Heat Index: 67°   Visibility: 10mi
Dew Point: 59°   Wind: 15mph
Humidity: 76%   Direction: 280°W
Pressure: 30.04"   Gusts: NA
Location:  37.78°N, 122.42°W
Report Text: KSFO 230256Z 28013KT 10SM FEW010 BKN150 19/15 A3004 RMK AO2 SLP171 T01940150 51004 $
Loading
Personal Weather Stations






























Interactive Weather Map
Tropical Storm Tracking
New forecast layout! Learn more

10-Day Weather Forecast

Advertisements
Track Severe Weather on mobile